createdAt,value
2023-05-21T00:00:12.518Z,20.80
2023-05-21T00:00:43.022Z,20.79
2023-05-21T00:01:13.518Z,20.80
2023-05-21T00:01:44.010Z,20.80
2023-05-21T00:02:14.505Z,20.79
2023-05-21T00:02:45.071Z,20.80
2023-05-21T00:03:15.694Z,20.80
2023-05-21T00:03:46.492Z,20.80
2023-05-21T00:04:17.002Z,20.79
2023-05-21T00:04:47.642Z,20.79
2023-05-21T00:05:18.123Z,20.80
2023-05-21T00:05:48.644Z,20.79
2023-05-21T00:06:19.182Z,20.79
2023-05-21T00:06:49.669Z,20.80
2023-05-21T00:07:20.184Z,20.80
2023-05-21T00:07:50.692Z,20.80
2023-05-21T00:08:21.211Z,20.80
2023-05-21T00:08:51.699Z,20.79
2023-05-21T00:09:22.214Z,20.79
2023-05-21T00:09:52.777Z,20.80
2023-05-21T00:10:23.310Z,20.79
2023-05-21T00:10:53.854Z,20.80
2023-05-21T00:11:24.346Z,20.80
2023-05-21T00:11:54.859Z,20.80
2023-05-21T00:12:25.370Z,20.80
2023-05-21T00:12:55.873Z,20.77
2023-05-21T00:13:26.394Z,20.79
2023-05-21T00:13:56.898Z,20.79
2023-05-21T00:14:27.907Z,20.79
2023-05-21T00:14:58.483Z,20.79
2023-05-21T00:15:28.962Z,20.79
2023-05-21T00:15:59.493Z,20.79
2023-05-21T00:16:30.499Z,20.79
2023-05-21T00:17:00.954Z,20.79
2023-05-21T00:17:31.475Z,20.79
2023-05-21T00:18:02.015Z,20.79
2023-05-21T00:18:32.578Z,20.79
2023-05-21T00:19:03.101Z,20.79
2023-05-21T00:19:33.570Z,20.82
2023-05-21T00:20:04.171Z,20.80
2023-05-21T00:20:34.699Z,20.79
2023-05-21T00:21:05.193Z,20.79
2023-05-21T00:21:36.195Z,20.79
2023-05-21T00:22:07.200Z,20.80
2023-05-21T00:22:37.705Z,20.79
2023-05-21T00:23:08.691Z,20.80
2023-05-21T00:23:39.704Z,20.77
2023-05-21T00:24:10.191Z,20.80
2023-05-21T00:24:40.698Z,20.79
2023-05-21T00:25:11.812Z,20.79
2023-05-21T00:25:42.328Z,20.79
2023-05-21T00:26:12.843Z,20.77
2023-05-21T00:26:43.370Z,20.77
2023-05-21T00:27:13.856Z,20.77
2023-05-21T00:27:44.858Z,20.79
2023-05-21T00:28:15.365Z,20.79
2023-05-21T00:28:46.122Z,20.79
2023-05-21T00:29:16.673Z,20.80
2023-05-21T00:29:47.148Z,20.79
2023-05-21T00:30:17.721Z,20.79
2023-05-21T00:30:48.214Z,20.77
2023-05-21T00:31:18.772Z,20.79
2023-05-21T00:31:49.236Z,20.80
2023-05-21T00:32:19.814Z,20.79
2023-05-21T00:32:50.350Z,20.79
2023-05-21T00:33:20.815Z,20.79
2023-05-21T00:33:51.319Z,20.79
2023-05-21T00:34:21.811Z,20.77
2023-05-21T00:34:52.330Z,20.79
2023-05-21T00:35:23.362Z,20.79
2023-05-21T00:35:53.865Z,20.77
2023-05-21T00:36:24.379Z,20.79
2023-05-21T00:36:54.877Z,20.77
2023-05-21T00:37:25.398Z,20.77
2023-05-21T00:37:55.915Z,20.77
2023-05-21T00:38:26.415Z,20.77
2023-05-21T00:38:56.911Z,20.75
2023-05-21T00:39:27.407Z,20.79
2023-05-21T00:39:58.482Z,20.79
2023-05-21T00:40:28.520Z,20.77
2023-05-21T00:40:59.029Z,20.77
2023-05-21T00:41:29.539Z,20.77
2023-05-21T00:42:00.518Z,20.79
2023-05-21T00:42:31.532Z,20.79
2023-05-21T00:43:02.078Z,20.79
2023-05-21T00:43:33.061Z,20.77
2023-05-21T00:44:04.049Z,20.75
2023-05-21T00:44:35.057Z,20.77
2023-05-21T00:45:05.552Z,20.79
2023-05-21T00:45:36.327Z,20.77
2023-05-21T00:46:06.962Z,20.77
2023-05-21T00:46:37.487Z,20.77
2023-05-21T00:47:08.491Z,20.79
2023-05-21T00:47:39.017Z,20.77
2023-05-21T00:48:09.523Z,20.79
2023-05-21T00:48:40.040Z,20.77
2023-05-21T00:49:10.573Z,20.77
2023-05-21T00:49:41.079Z,20.79
2023-05-21T00:50:11.584Z,20.77
2023-05-21T00:50:42.148Z,20.79
2023-05-21T00:51:12.651Z,20.77
2023-05-21T00:51:43.652Z,20.77
2023-05-21T00:52:14.158Z,20.79
2023-05-21T00:52:45.162Z,20.75
2023-05-21T00:53:15.729Z,20.77
2023-05-21T00:53:46.189Z,20.77
2023-05-21T00:54:16.684Z,20.75
2023-05-21T00:54:47.201Z,20.79
2023-05-21T00:55:17.720Z,20.77
2023-05-21T00:55:48.240Z,20.77
2023-05-21T00:56:18.754Z,20.79
2023-05-21T00:56:49.266Z,20.77
2023-05-21T00:57:19.774Z,20.79
2023-05-21T00:57:50.804Z,20.77
2023-05-21T00:58:21.281Z,20.77
2023-05-21T00:58:51.936Z,20.75
2023-05-21T00:59:22.437Z,20.77
2023-05-21T00:59:52.958Z,20.75
2023-05-21T01:00:23.462Z,20.77
2023-05-21T01:00:54.032Z,20.75
2023-05-21T01:01:24.532Z,20.77
2023-05-21T01:01:55.006Z,20.77
2023-05-21T01:02:26.064Z,20.77
2023-05-21T01:02:56.716Z,20.77
2023-05-21T01:03:27.359Z,20.75
2023-05-21T01:03:58.081Z,20.75
2023-05-21T01:04:28.561Z,20.77
2023-05-21T01:04:59.061Z,20.77
2023-05-21T01:05:30.064Z,20.75
2023-05-21T01:06:01.106Z,20.75
2023-05-21T01:06:31.618Z,20.75
2023-05-21T01:07:02.137Z,20.77
2023-05-21T01:07:32.647Z,20.75
2023-05-21T01:08:03.135Z,20.77
2023-05-21T01:08:34.132Z,20.77
2023-05-21T01:09:05.518Z,20.75
2023-05-21T01:09:36.034Z,20.75
2023-05-21T01:10:06.528Z,20.77
2023-05-21T01:10:37.024Z,20.75
2023-05-21T01:11:08.110Z,20.75
2023-05-21T01:11:38.631Z,20.75
2023-05-21T01:12:09.124Z,20.75
2023-05-21T01:12:40.126Z,20.75
2023-05-21T01:13:10.640Z,20.75
2023-05-21T01:13:41.170Z,20.77
2023-05-21T01:14:11.662Z,20.75
2023-05-21T01:14:42.172Z,20.74
2023-05-21T01:15:12.686Z,20.74
2023-05-21T01:15:43.201Z,20.75
2023-05-21T01:16:13.875Z,20.75
2023-05-21T01:16:44.413Z,20.75
2023-05-21T01:17:15.010Z,20.77
2023-05-21T01:17:45.507Z,20.77
2023-05-21T01:18:16.100Z,20.75
2023-05-21T01:18:46.801Z,20.74
2023-05-21T01:19:17.401Z,20.75
2023-05-21T01:19:47.947Z,20.75
2023-05-21T01:20:18.905Z,20.75
2023-05-21T01:20:49.436Z,20.75
2023-05-21T01:21:20.029Z,20.75
2023-05-21T01:21:50.519Z,20.75
2023-05-21T01:22:21.044Z,20.75
2023-05-21T01:22:51.536Z,20.75
2023-05-21T01:23:22.539Z,20.75
2023-05-21T01:23:53.046Z,20.75
2023-05-21T01:24:24.056Z,20.77
2023-05-21T01:24:54.554Z,20.75
2023-05-21T01:25:25.577Z,20.77
2023-05-21T01:25:56.080Z,20.75
2023-05-21T01:26:26.691Z,20.75
2023-05-21T01:26:57.195Z,20.75
2023-05-21T01:27:27.701Z,20.77
2023-05-21T01:27:58.707Z,20.74
2023-05-21T01:28:29.235Z,20.75
2023-05-21T01:28:59.748Z,20.75
2023-05-21T01:29:30.251Z,20.75
2023-05-21T01:30:00.760Z,20.75
2023-05-21T01:30:31.765Z,20.75
2023-05-21T01:31:02.267Z,20.75
2023-05-21T01:31:32.788Z,20.75
2023-05-21T01:32:03.271Z,20.74
2023-05-21T01:32:34.436Z,20.75
2023-05-21T01:33:05.064Z,20.75
2023-05-21T01:33:35.630Z,20.75
2023-05-21T01:34:06.147Z,20.75
2023-05-21T01:34:36.810Z,20.74
2023-05-21T01:35:07.321Z,20.75
2023-05-21T01:35:38.042Z,20.75
2023-05-21T01:36:08.807Z,20.74
2023-05-21T01:36:39.332Z,20.75
2023-05-21T01:37:09.846Z,20.75
2023-05-21T01:37:40.348Z,20.74
2023-05-21T01:38:10.873Z,20.74
2023-05-21T01:38:41.421Z,20.75
2023-05-21T01:39:11.923Z,20.74
2023-05-21T01:39:42.432Z,20.75
2023-05-21T01:40:13.420Z,20.74
2023-05-21T01:40:43.926Z,20.75
2023-05-21T01:41:14.435Z,20.74
2023-05-21T01:41:45.476Z,20.75
2023-05-21T01:42:16.030Z,20.74
2023-05-21T01:42:46.511Z,20.75
2023-05-21T01:43:17.007Z,20.73
2023-05-21T01:43:47.530Z,20.74
2023-05-21T01:44:18.009Z,20.74
2023-05-21T01:44:48.520Z,20.74
2023-05-21T01:45:19.019Z,20.74
2023-05-21T01:45:49.544Z,20.74
2023-05-21T01:46:20.139Z,20.74
2023-05-21T01:46:50.765Z,20.74
2023-05-21T01:47:21.331Z,20.74
2023-05-21T01:47:51.894Z,20.73
2023-05-21T01:48:22.403Z,20.74
2023-05-21T01:48:52.900Z,20.74
2023-05-21T01:49:23.402Z,20.74
2023-05-21T01:49:53.932Z,20.74
2023-05-21T01:50:24.439Z,20.74
2023-05-21T01:50:54.939Z,20.74
2023-05-21T01:51:25.458Z,20.74
2023-05-21T01:51:55.976Z,20.74
2023-05-21T01:52:26.493Z,20.74
2023-05-21T01:52:57.480Z,20.74
2023-05-21T01:53:28.494Z,20.74
2023-05-21T01:53:58.998Z,20.73
2023-05-21T01:54:29.519Z,20.73
2023-05-21T01:55:00.512Z,20.74
2023-05-21T01:55:31.025Z,20.74
2023-05-21T01:56:01.527Z,20.73
2023-05-21T01:56:32.529Z,20.74
2023-05-21T01:57:03.607Z,20.74
2023-05-21T01:57:34.098Z,20.73
2023-05-21T01:58:04.603Z,20.73
2023-05-21T01:58:35.124Z,20.74
2023-05-21T01:59:05.645Z,20.74
2023-05-21T01:59:36.151Z,20.74
2023-05-21T02:00:06.654Z,20.74
2023-05-21T02:00:37.652Z,20.73
2023-05-21T02:01:08.162Z,20.74
2023-05-21T02:01:38.677Z,20.73
2023-05-21T02:02:09.858Z,20.73
2023-05-21T02:02:40.414Z,20.74
2023-05-21T02:03:11.086Z,20.74
2023-05-21T02:03:41.706Z,20.74
2023-05-21T02:04:12.318Z,20.71
2023-05-21T02:04:42.807Z,20.73
2023-05-21T02:05:13.323Z,20.74
2023-05-21T02:05:43.903Z,20.74
2023-05-21T02:06:14.407Z,20.74
2023-05-21T02:06:44.920Z,20.73
2023-05-21T02:07:15.465Z,20.73
2023-05-21T02:07:45.974Z,20.73
2023-05-21T02:08:16.523Z,20.71
2023-05-21T02:08:47.047Z,20.73
2023-05-21T02:09:17.538Z,20.73
2023-05-21T02:09:48.551Z,20.73
2023-05-21T02:10:19.083Z,20.74
2023-05-21T02:10:49.622Z,20.74
2023-05-21T02:11:20.621Z,20.73
2023-05-21T02:11:51.144Z,20.73
2023-05-21T02:12:21.651Z,20.73
2023-05-21T02:12:52.183Z,20.73
2023-05-21T02:13:25.826Z,20.73
2023-05-21T02:13:53.333Z,20.73
2023-05-21T02:14:23.829Z,20.73
2023-05-21T02:14:54.330Z,20.73
2023-05-21T02:15:24.827Z,20.73
2023-05-21T02:15:55.864Z,20.73
2023-05-21T02:16:26.407Z,20.73
2023-05-21T02:16:56.900Z,20.71
2023-05-21T02:17:27.565Z,20.73
2023-05-21T02:17:58.047Z,20.73
2023-05-21T02:18:28.608Z,20.73
2023-05-21T02:18:59.136Z,20.73
2023-05-21T02:19:30.430Z,20.73
2023-05-21T02:20:01.043Z,20.73
2023-05-21T02:20:31.570Z,20.73
2023-05-21T02:21:02.075Z,20.73
2023-05-21T02:21:32.568Z,20.73
2023-05-21T02:22:03.565Z,20.73
2023-05-21T02:22:34.624Z,20.73
2023-05-21T02:23:05.129Z,20.73
2023-05-21T02:23:35.645Z,20.73
2023-05-21T02:24:06.182Z,20.71
2023-05-21T02:24:36.673Z,20.73
2023-05-21T02:25:07.674Z,20.73
2023-05-21T02:25:38.500Z,20.73
2023-05-21T02:26:09.032Z,20.73
2023-05-21T02:26:39.531Z,20.73
2023-05-21T02:27:10.038Z,20.73
2023-05-21T02:27:41.083Z,20.73
2023-05-21T02:28:11.592Z,20.73
2023-05-21T02:28:42.603Z,20.73
2023-05-21T02:29:13.126Z,20.73
2023-05-21T02:29:43.630Z,20.73
2023-05-21T02:30:14.616Z,20.73
2023-05-21T02:30:45.613Z,20.71
2023-05-21T02:31:16.462Z,20.71
2023-05-21T02:31:46.969Z,20.73
2023-05-21T02:32:17.489Z,20.73
2023-05-21T02:32:48.205Z,20.73
2023-05-21T02:33:18.644Z,20.70
2023-05-21T02:33:49.301Z,20.73
2023-05-21T02:34:19.917Z,20.71
2023-05-21T02:34:50.437Z,20.73
2023-05-21T02:35:20.939Z,20.73
2023-05-21T02:35:51.467Z,20.73
2023-05-21T02:36:21.967Z,20.73
2023-05-21T02:36:52.537Z,20.71
2023-05-21T02:37:22.998Z,20.71
2023-05-21T02:37:54.069Z,20.73
2023-05-21T02:38:24.574Z,20.71
2023-05-21T02:38:55.080Z,20.71
2023-05-21T02:39:25.591Z,20.73
2023-05-21T02:39:56.094Z,20.73
2023-05-21T02:40:26.613Z,20.71
2023-05-21T02:40:57.119Z,20.71
2023-05-21T02:41:27.641Z,20.71
2023-05-21T02:41:58.217Z,20.71
2023-05-21T02:42:29.234Z,20.71
2023-05-21T02:42:59.811Z,20.71
2023-05-21T02:43:30.313Z,20.71
2023-05-21T02:44:00.836Z,20.70
2023-05-21T02:44:31.352Z,20.71
2023-05-21T02:45:01.857Z,20.71
2023-05-21T02:45:32.893Z,20.71
2023-05-21T02:46:03.445Z,20.70
2023-05-21T02:46:33.973Z,20.71
2023-05-21T02:47:04.482Z,20.71
2023-05-21T02:47:35.040Z,20.70
2023-05-21T02:48:05.643Z,20.70
2023-05-21T02:48:36.142Z,20.70
2023-05-21T02:49:06.652Z,20.71
2023-05-21T02:49:37.644Z,20.70
2023-05-21T02:50:08.661Z,20.70
2023-05-21T02:50:39.183Z,20.70
2023-05-21T02:51:09.667Z,20.71
2023-05-21T02:51:40.181Z,20.71
2023-05-21T02:52:10.692Z,20.70
2023-05-21T02:52:41.187Z,20.70
2023-05-21T02:53:12.293Z,20.70
2023-05-21T02:53:42.810Z,20.70
2023-05-21T02:54:13.315Z,20.71
2023-05-21T02:54:43.815Z,20.70
2023-05-21T02:55:14.326Z,20.70
2023-05-21T02:55:44.847Z,20.71
2023-05-21T02:56:15.350Z,20.71
2023-05-21T02:56:46.210Z,20.70
2023-05-21T02:57:16.727Z,20.70
2023-05-21T02:57:47.251Z,20.71
2023-05-21T02:58:17.818Z,20.70
2023-05-21T02:58:48.318Z,20.70
2023-05-21T02:59:18.828Z,20.70
2023-05-21T02:59:49.335Z,20.70
2023-05-21T03:00:19.844Z,20.71
2023-05-21T03:00:50.848Z,20.70
2023-05-21T03:01:21.410Z,20.71
2023-05-21T03:01:51.912Z,20.70
2023-05-21T03:02:22.844Z,20.70
2023-05-21T03:02:53.549Z,20.70
2023-05-21T03:03:24.187Z,20.70
2023-05-21T03:03:54.674Z,20.70
2023-05-21T03:04:25.682Z,20.68
2023-05-21T03:04:56.206Z,20.70
2023-05-21T03:05:26.718Z,20.70
2023-05-21T03:05:57.221Z,20.71
2023-05-21T03:06:27.725Z,20.68
2023-05-21T03:06:58.220Z,20.70
2023-05-21T03:07:28.740Z,20.70
2023-05-21T03:07:59.253Z,20.71
2023-05-21T03:08:29.771Z,20.70
2023-05-21T03:09:00.269Z,20.71
2023-05-21T03:09:30.760Z,20.73
2023-05-21T03:10:01.266Z,20.71
2023-05-21T03:10:31.779Z,20.70
2023-05-21T03:11:02.304Z,20.70
2023-05-21T03:11:32.806Z,20.70
2023-05-21T03:12:03.327Z,20.70
2023-05-21T03:12:33.832Z,20.70
2023-05-21T03:13:04.386Z,20.70
2023-05-21T03:13:34.996Z,20.68
2023-05-21T03:14:05.540Z,20.68
2023-05-21T03:14:36.543Z,20.70
2023-05-21T03:15:07.038Z,20.70
2023-05-21T03:15:38.175Z,20.67
2023-05-21T03:16:08.819Z,20.68
2023-05-21T03:16:39.340Z,20.70
2023-05-21T03:17:09.857Z,20.70
2023-05-21T03:17:40.421Z,20.68
2023-05-21T03:18:11.002Z,20.68
2023-05-21T03:18:41.586Z,20.68
2023-05-21T03:19:12.058Z,20.68
2023-05-21T03:19:43.030Z,20.70
2023-05-21T03:20:13.523Z,20.70
2023-05-21T03:20:44.539Z,20.70
2023-05-21T03:21:15.037Z,20.70
2023-05-21T03:21:46.033Z,20.68
2023-05-21T03:22:17.041Z,20.67
2023-05-21T03:22:47.543Z,20.71
2023-05-21T03:23:18.550Z,20.68
2023-05-21T03:23:49.100Z,20.70
2023-05-21T03:24:19.594Z,20.68
2023-05-21T03:24:50.599Z,20.68
2023-05-21T03:25:21.655Z,20.70
2023-05-21T03:25:52.128Z,20.67
2023-05-21T03:26:23.126Z,20.68
2023-05-21T03:26:53.636Z,20.68
2023-05-21T03:27:24.144Z,20.68
2023-05-21T03:27:54.663Z,20.68
2023-05-21T03:28:25.169Z,20.67
2023-05-21T03:28:56.233Z,20.70
2023-05-21T03:29:26.726Z,20.71
2023-05-21T03:29:57.718Z,20.70
2023-05-21T03:30:28.722Z,20.70
2023-05-21T03:30:59.723Z,20.70
2023-05-21T03:31:30.255Z,20.70
2023-05-21T03:32:00.832Z,20.70
2023-05-21T03:32:31.377Z,20.67
2023-05-21T03:33:01.890Z,20.68
2023-05-21T03:33:32.364Z,20.68
2023-05-21T03:34:03.389Z,20.68
2023-05-21T03:34:33.880Z,20.68
2023-05-21T03:35:04.383Z,20.67
2023-05-21T03:35:35.116Z,20.68
2023-05-21T03:36:05.688Z,20.68
2023-05-21T03:36:36.173Z,20.68
2023-05-21T03:37:07.188Z,20.67
2023-05-21T03:37:37.680Z,20.68
2023-05-21T03:38:08.190Z,20.68
2023-05-21T03:38:39.180Z,20.68
2023-05-21T03:39:10.322Z,20.68
2023-05-21T03:39:40.842Z,20.68
2023-05-21T03:40:11.829Z,20.67
2023-05-21T03:40:42.822Z,20.67
2023-05-21T03:41:13.838Z,20.68
2023-05-21T03:41:44.330Z,20.67
2023-05-21T03:42:14.837Z,20.67
2023-05-21T03:42:45.344Z,20.68
2023-05-21T03:43:16.421Z,20.67
2023-05-21T03:43:46.881Z,20.65
2023-05-21T03:44:17.443Z,20.70
2023-05-21T03:44:47.957Z,20.68
2023-05-21T03:45:18.939Z,20.67
2023-05-21T03:45:49.490Z,20.67
2023-05-21T03:46:20.004Z,20.68
2023-05-21T03:46:50.458Z,20.67
2023-05-21T03:47:21.522Z,20.68
2023-05-21T03:47:52.016Z,20.68
2023-05-21T03:48:22.478Z,20.68
2023-05-21T03:48:52.992Z,20.67
2023-05-21T03:49:23.560Z,20.67
2023-05-21T03:49:54.079Z,20.68
2023-05-21T03:50:24.574Z,20.68
2023-05-21T03:50:55.086Z,20.68
2023-05-21T03:51:25.589Z,20.65
2023-05-21T03:51:56.595Z,20.68
2023-05-21T03:52:27.099Z,20.68
2023-05-21T03:52:57.612Z,20.67
2023-05-21T03:53:28.123Z,20.65
2023-05-21T03:53:58.632Z,20.67
2023-05-21T03:54:29.222Z,20.68
2023-05-21T03:54:59.732Z,20.67
2023-05-21T03:55:30.252Z,20.67
2023-05-21T03:56:00.750Z,20.67
2023-05-21T03:56:31.792Z,20.67
2023-05-21T03:57:02.265Z,20.65
2023-05-21T03:57:32.773Z,20.67
2023-05-21T03:58:03.275Z,20.68
2023-05-21T03:58:34.269Z,20.67
2023-05-21T03:59:04.777Z,20.68
2023-05-21T03:59:35.317Z,20.67
2023-05-21T04:00:05.808Z,20.67
2023-05-21T04:00:36.304Z,20.65
2023-05-21T04:01:07.303Z,20.67
2023-05-21T04:01:38.296Z,20.67
2023-05-21T04:02:08.836Z,20.65
2023-05-21T04:02:39.480Z,20.67
2023-05-21T04:03:10.124Z,20.65
2023-05-21T04:03:41.065Z,20.65
2023-05-21T04:04:11.347Z,20.67
2023-05-21T04:04:41.993Z,20.67
2023-05-21T04:05:12.447Z,20.65
2023-05-21T04:05:42.944Z,20.67
2023-05-21T04:06:13.455Z,20.67
2023-05-21T04:06:43.959Z,20.65
2023-05-21T04:07:14.498Z,20.65
2023-05-21T04:07:45.045Z,20.67
2023-05-21T04:08:16.045Z,20.67
2023-05-21T04:08:47.033Z,20.65
2023-05-21T04:09:18.029Z,20.65
2023-05-21T04:09:48.570Z,20.67
2023-05-21T04:10:19.094Z,20.65
2023-05-21T04:10:49.608Z,20.65
2023-05-21T04:11:20.101Z,20.67
2023-05-21T04:11:50.610Z,20.65
2023-05-21T04:12:21.126Z,20.65
2023-05-21T04:12:51.615Z,20.65
2023-05-21T04:13:22.115Z,20.65
2023-05-21T04:13:52.644Z,20.65
2023-05-21T04:14:23.658Z,20.65
2023-05-21T04:14:54.185Z,20.67
2023-05-21T04:15:24.684Z,20.65
2023-05-21T04:15:55.701Z,20.64
2023-05-21T04:16:26.231Z,20.65
2023-05-21T04:16:56.700Z,20.65
2023-05-21T04:17:27.239Z,20.64
2023-05-21T04:17:57.738Z,20.65
2023-05-21T04:18:28.272Z,20.65
2023-05-21T04:18:58.767Z,20.65
2023-05-21T04:19:29.278Z,20.65
2023-05-21T04:19:59.983Z,20.65
2023-05-21T04:20:30.475Z,20.65
2023-05-21T04:21:01.472Z,20.65
2023-05-21T04:21:31.995Z,20.65
2023-05-21T04:22:02.476Z,20.64
2023-05-21T04:22:33.478Z,20.65
2023-05-21T04:23:03.990Z,20.64
2023-05-21T04:23:34.516Z,20.65
2023-05-21T04:24:05.031Z,20.67
2023-05-21T04:24:36.020Z,20.64
2023-05-21T04:25:07.062Z,20.64
2023-05-21T04:25:37.752Z,20.64
2023-05-21T04:26:08.288Z,20.64
2023-05-21T04:26:38.781Z,20.65
2023-05-21T04:27:09.779Z,20.65
2023-05-21T04:27:40.268Z,20.65
2023-05-21T04:28:11.274Z,20.65
2023-05-21T04:28:41.771Z,20.64
2023-05-21T04:29:12.268Z,20.65
2023-05-21T04:29:43.270Z,20.64
2023-05-21T04:30:13.882Z,20.65
2023-05-21T04:30:44.366Z,20.65
2023-05-21T04:31:14.913Z,20.64
2023-05-21T04:31:45.443Z,20.65
2023-05-21T04:32:15.927Z,20.64
2023-05-21T04:32:47.003Z,20.64
2023-05-21T04:33:17.451Z,20.65
2023-05-21T04:33:47.953Z,20.65
2023-05-21T04:34:18.461Z,20.63
2023-05-21T04:34:48.953Z,20.64
2023-05-21T04:35:19.513Z,20.63
2023-05-21T04:35:50.306Z,20.64
2023-05-21T04:36:20.808Z,20.65
2023-05-21T04:36:51.315Z,20.65
2023-05-21T04:37:22.316Z,20.65
2023-05-21T04:37:53.315Z,20.64
2023-05-21T04:38:23.810Z,20.63
2023-05-21T04:38:54.811Z,20.64
2023-05-21T04:39:25.325Z,20.63
2023-05-21T04:39:55.843Z,20.64
2023-05-21T04:40:26.433Z,20.64
2023-05-21T04:40:56.928Z,20.65
2023-05-21T04:41:27.927Z,20.64
2023-05-21T04:41:58.930Z,20.64
2023-05-21T04:42:29.434Z,20.64
2023-05-21T04:42:59.949Z,20.64
2023-05-21T04:43:30.459Z,20.64
2023-05-21T04:44:01.462Z,20.64
2023-05-21T04:44:31.971Z,20.64
2023-05-21T04:45:02.472Z,20.63
2023-05-21T04:45:33.029Z,20.64
2023-05-21T04:46:03.533Z,20.64
2023-05-21T04:46:34.094Z,20.63
2023-05-21T04:47:04.583Z,20.63
2023-05-21T04:47:35.113Z,20.63
2023-05-21T04:48:05.633Z,20.64
2023-05-21T04:48:36.104Z,20.63
2023-05-21T04:49:06.603Z,20.64
2023-05-21T04:49:37.100Z,20.63
2023-05-21T04:50:07.613Z,20.63
2023-05-21T04:50:38.158Z,20.64
2023-05-21T04:51:08.644Z,20.63
2023-05-21T04:51:39.158Z,20.64
2023-05-21T04:52:09.680Z,20.64
2023-05-21T04:52:40.676Z,20.63
2023-05-21T04:53:11.178Z,20.63
2023-05-21T04:53:41.689Z,20.64
2023-05-21T04:54:12.195Z,20.64
2023-05-21T04:54:42.702Z,20.63
2023-05-21T04:55:13.206Z,20.61
2023-05-21T04:55:43.764Z,20.63
2023-05-21T04:56:14.260Z,20.64
2023-05-21T04:56:45.263Z,20.63
2023-05-21T04:57:15.798Z,20.63
2023-05-21T04:57:46.313Z,20.64
2023-05-21T04:58:16.815Z,20.64
2023-05-21T04:58:47.835Z,20.63
2023-05-21T04:59:18.321Z,20.63
2023-05-21T04:59:49.343Z,20.64
2023-05-21T05:00:19.824Z,20.63
2023-05-21T05:00:50.382Z,20.64
2023-05-21T05:01:20.945Z,20.63
2023-05-21T05:01:51.434Z,20.61
2023-05-21T05:02:21.974Z,20.63
2023-05-21T05:02:53.045Z,20.63
2023-05-21T05:03:23.752Z,20.63
2023-05-21T05:03:54.347Z,20.63
2023-05-21T05:04:25.028Z,20.64
2023-05-21T05:04:55.539Z,20.64
2023-05-21T05:05:26.053Z,20.63
2023-05-21T05:05:56.692Z,20.64
2023-05-21T05:06:27.125Z,20.63
2023-05-21T05:06:58.172Z,20.63
2023-05-21T05:07:28.648Z,20.64
2023-05-21T05:07:59.137Z,20.63
2023-05-21T05:08:29.644Z,20.64
2023-05-21T05:09:00.168Z,20.64
2023-05-21T05:09:31.152Z,20.63
2023-05-21T05:10:01.651Z,20.64
2023-05-21T05:10:32.680Z,20.63
2023-05-21T05:11:03.305Z,20.63
2023-05-21T05:11:33.811Z,20.63
2023-05-21T05:12:04.303Z,20.61
2023-05-21T05:12:35.303Z,20.63
2023-05-21T05:13:05.814Z,20.63
2023-05-21T05:13:36.326Z,20.63
2023-05-21T05:14:06.841Z,20.63
2023-05-21T05:14:37.363Z,20.63
2023-05-21T05:15:07.864Z,20.63
2023-05-21T05:15:38.577Z,20.63
2023-05-21T05:16:09.227Z,20.63
2023-05-21T05:16:39.755Z,20.63
2023-05-21T05:17:10.233Z,20.63
2023-05-21T05:17:40.767Z,20.61
2023-05-21T05:18:11.266Z,20.63
2023-05-21T05:18:41.848Z,20.61
2023-05-21T05:19:12.395Z,20.63
2023-05-21T05:19:42.858Z,20.61
2023-05-21T05:20:13.370Z,20.64
2023-05-21T05:20:43.889Z,20.63
2023-05-21T05:21:14.461Z,20.63
2023-05-21T05:21:44.982Z,20.61
2023-05-21T05:22:15.457Z,20.61
2023-05-21T05:22:46.454Z,20.63
2023-05-21T05:23:17.448Z,20.60
2023-05-21T05:23:47.961Z,20.61
2023-05-21T05:24:18.475Z,20.61
2023-05-21T05:24:48.965Z,20.63
2023-05-21T05:25:19.993Z,20.61
2023-05-21T05:25:50.498Z,20.61
2023-05-21T05:26:21.005Z,20.63
2023-05-21T05:26:51.501Z,20.63
2023-05-21T05:27:22.001Z,20.63
2023-05-21T05:27:52.532Z,20.61
2023-05-21T05:28:23.024Z,20.61
2023-05-21T05:28:53.523Z,20.61
2023-05-21T05:29:24.020Z,20.60
2023-05-21T05:29:54.525Z,20.61
2023-05-21T05:30:25.033Z,20.61
2023-05-21T05:30:56.075Z,20.61
2023-05-21T05:31:26.696Z,20.63
2023-05-21T05:31:57.240Z,20.60
2023-05-21T05:32:27.761Z,20.61
2023-05-21T05:32:58.277Z,20.61
2023-05-21T05:33:28.798Z,20.61
2023-05-21T05:33:59.292Z,20.63
2023-05-21T05:34:29.798Z,20.61
2023-05-21T05:35:02.198Z,20.60
2023-05-21T05:35:31.060Z,20.60
2023-05-21T05:36:01.569Z,20.63
2023-05-21T05:36:32.631Z,20.61
2023-05-21T05:37:03.130Z,20.60
2023-05-21T05:37:33.635Z,20.60
2023-05-21T05:38:04.155Z,20.60
2023-05-21T05:38:34.656Z,20.61
2023-05-21T05:39:05.161Z,20.63
2023-05-21T05:39:35.655Z,20.60
2023-05-21T05:40:06.658Z,20.61
2023-05-21T05:40:37.706Z,20.61
2023-05-21T05:41:08.173Z,20.61
2023-05-21T05:41:38.732Z,20.60
2023-05-21T05:42:09.234Z,20.61
2023-05-21T05:42:39.750Z,20.61
2023-05-21T05:43:10.258Z,20.61
2023-05-21T05:43:41.253Z,20.60
2023-05-21T05:44:11.761Z,20.61
2023-05-21T05:44:42.273Z,20.60
2023-05-21T05:45:12.785Z,20.61
2023-05-21T05:45:43.283Z,20.61
2023-05-21T05:46:13.803Z,20.60
2023-05-21T05:46:44.809Z,20.60
2023-05-21T05:47:15.313Z,20.60
2023-05-21T05:47:45.846Z,20.60
2023-05-21T05:48:16.325Z,20.60
2023-05-21T05:48:46.832Z,20.58
2023-05-21T05:49:17.816Z,20.61
2023-05-21T05:49:48.328Z,20.60
2023-05-21T05:50:19.317Z,20.60
2023-05-21T05:50:49.834Z,20.61
2023-05-21T05:51:20.352Z,20.60
2023-05-21T05:51:50.953Z,20.61
2023-05-21T05:52:21.439Z,20.60
2023-05-21T05:52:52.427Z,20.58
2023-05-21T05:53:23.436Z,20.58
2023-05-21T05:53:53.944Z,20.60
2023-05-21T05:54:24.946Z,20.58
2023-05-21T05:54:55.441Z,20.61
2023-05-21T05:55:26.452Z,20.61
2023-05-21T05:55:56.964Z,20.60
2023-05-21T05:56:27.476Z,20.60
2023-05-21T05:56:58.609Z,20.60
2023-05-21T05:57:29.102Z,20.60
2023-05-21T05:58:00.117Z,20.60
2023-05-21T05:58:31.111Z,20.58
2023-05-21T05:59:01.622Z,20.60
2023-05-21T05:59:32.123Z,20.58
2023-05-21T06:00:02.631Z,20.60
2023-05-21T06:00:33.135Z,20.58
2023-05-21T06:01:03.645Z,20.60
2023-05-21T06:01:34.150Z,20.60
2023-05-21T06:02:04.736Z,20.58
2023-05-21T06:02:35.314Z,20.58
2023-05-21T06:03:05.862Z,20.58
2023-05-21T06:03:36.646Z,20.58
2023-05-21T06:04:07.160Z,20.60
2023-05-21T06:04:38.166Z,20.60
2023-05-21T06:05:08.700Z,20.60
2023-05-21T06:05:39.448Z,20.58
2023-05-21T06:06:10.235Z,20.58
2023-05-21T06:06:40.733Z,20.58
2023-05-21T06:07:11.803Z,20.58
2023-05-21T06:07:42.282Z,20.58
2023-05-21T06:08:13.273Z,20.58
2023-05-21T06:08:43.786Z,20.60
2023-05-21T06:09:14.302Z,20.58
2023-05-21T06:09:44.813Z,20.56
2023-05-21T06:10:15.349Z,20.58
2023-05-21T06:10:45.861Z,20.58
2023-05-21T06:11:16.369Z,20.60
2023-05-21T06:11:47.355Z,20.58
2023-05-21T06:12:17.875Z,20.58
2023-05-21T06:12:48.370Z,20.58
2023-05-21T06:13:19.376Z,20.58
2023-05-21T06:13:49.891Z,20.60
2023-05-21T06:14:20.404Z,20.58
2023-05-21T06:14:50.922Z,20.56
2023-05-21T06:15:21.909Z,20.58
2023-05-21T06:15:52.432Z,20.58
2023-05-21T06:16:23.450Z,20.60
2023-05-21T06:16:53.936Z,20.58
2023-05-21T06:17:24.494Z,20.58
2023-05-21T06:17:55.002Z,20.56
2023-05-21T06:18:25.476Z,20.58
2023-05-21T06:18:56.482Z,20.60
2023-05-21T06:19:27.084Z,20.56
2023-05-21T06:19:57.624Z,20.58
2023-05-21T06:20:28.139Z,20.58
2023-05-21T06:20:58.647Z,20.58
2023-05-21T06:21:29.144Z,20.58
2023-05-21T06:21:59.630Z,20.58
2023-05-21T06:22:30.265Z,20.58
2023-05-21T06:23:00.758Z,20.58
2023-05-21T06:23:31.274Z,20.58
2023-05-21T06:24:01.772Z,20.56
2023-05-21T06:24:32.303Z,20.58
2023-05-21T06:25:02.821Z,20.58
2023-05-21T06:25:33.332Z,20.56
2023-05-21T06:26:04.328Z,20.56
2023-05-21T06:26:34.844Z,20.58
2023-05-21T06:27:05.346Z,20.56
2023-05-21T06:27:35.974Z,20.58
2023-05-21T06:28:06.476Z,20.56
2023-05-21T06:28:37.000Z,20.56
2023-05-21T06:29:07.988Z,20.58
2023-05-21T06:29:38.488Z,20.56
2023-05-21T06:30:09.481Z,20.56
2023-05-21T06:30:40.490Z,20.56
2023-05-21T06:31:10.985Z,20.56
2023-05-21T06:31:41.991Z,20.58
2023-05-21T06:32:12.537Z,20.58
2023-05-21T06:32:43.250Z,20.56
2023-05-21T06:33:13.778Z,20.56
2023-05-21T06:33:44.330Z,20.56
2023-05-21T06:34:14.821Z,20.56